Time;durP1;ratioP1;P1;durP2;ratioP2;P2;SDS_P1;SDS_P2;PMS_P1;PMS_P2;Temp;Humidity;BMP_temperature;BMP_pressure;BME280_temperature;BME280_humidity;BME280_pressure;Samples;Min_cycle;Max_cycle;Signal;HPM_P1;HPM_P2
2024/01/11 00:02:41;;;;;;;81.22;29.05;;;;;;;-6.69;70.86;102035.72;10437824;28;20531;-77
2024/01/11 00:07:45;;;;;;;79.68;29.45;;;;;;;-6.60;71.32;102035.88;10454460;28;20064;-78
2024/01/11 00:12:48;;;;;;;71.95;29.75;;;;;;;-6.53;70.97;102021.16;10442563;28;20052;-78
2024/01/11 00:17:51;;;;;;;77.80;30.92;;;;;;;-6.56;70.78;102029.81;10429779;28;20538;-77
2024/01/11 00:22:56;;;;;;;81.50;31.50;;;;;;;-6.47;70.95;102026.50;10438510;28;20067;-77
2024/01/11 00:27:59;;;;;;;77.70;30.67;;;;;;;-6.50;70.21;102026.41;10440537;28;20095;-77
2024/01/11 00:33:02;;;;;;;77.65;30.90;;;;;;;-6.55;69.88;102041.19;10444435;28;20052;-77
2024/01/11 00:38:07;;;;;;;80.40;30.92;;;;;;;-6.66;69.64;102027.03;10442772;28;20108;-77
2024/01/11 00:43:10;;;;;;;80.82;31.80;;;;;;;-6.62;70.09;102015.78;10440383;28;20041;-78
2024/01/11 00:48:13;;;;;;;72.00;31.40;;;;;;;-6.72;70.17;102019.97;10442156;28;20063;-77
2024/01/11 00:53:17;;;;;;;78.28;30.65;;;;;;;-6.78;70.23;102036.44;10437583;28;20183;-76
2024/01/11 00:58:21;;;;;;;73.40;29.48;;;;;;;-6.79;70.17;102032.06;10431735;28;21116;-76
2024/01/11 01:03:24;;;;;;;76.25;31.70;;;;;;;-6.84;70.21;102045.91;10447388;28;20079;-76
2024/01/11 01:08:28;;;;;;;79.40;31.38;;;;;;;-6.89;70.39;102047.56;10439128;28;20068;-77
2024/01/11 01:13:32;;;;;;;79.43;30.60;;;;;;;-6.85;70.91;102039.81;10441038;28;20135;-75
2024/01/11 01:18:35;;;;;;;80.50;32.38;;;;;;;-6.72;71.05;102040.00;10434242;28;20671;-78
2024/01/11 01:23:39;;;;;;;78.35;30.33;;;;;;;-6.78;70.63;102048.63;10439951;28;20099;-78
2024/01/11 01:28:42;;;;;;;75.28;30.98;;;;;;;-6.72;70.99;102038.25;10450900;28;20110;-78
2024/01/11 01:33:45;;;;;;;83.93;32.67;;;;;;;-6.72;70.56;102040.00;10434496;28;20153;-76
2024/01/11 01:38:50;;;;;;;73.32;30.30;;;;;;;-6.75;70.38;102040.81;10446553;28;20478;-78
2024/01/11 01:43:53;;;;;;;75.00;30.23;;;;;;;-6.81;70.45;102036.38;10440322;28;20436;-78
2024/01/11 01:48:58;;;;;;;69.40;27.77;;;;;;;-6.85;70.99;102041.56;10438970;28;20045;-78
2024/01/11 01:54:05;;;;;;;70.47;28.13;;;;;;;-7.11;72.45;102028.00;10448976;28;20411;-78
2024/01/11 01:59:10;;;;;;;77.07;29.50;;;;;;;-7.14;73.27;102033.19;10461162;28;20082;-77
2024/01/11 02:04:14;;;;;;;86.35;32.17;;;;;;;-7.09;72.93;102047.22;10447162;28;20637;-78
2024/01/11 02:09:19;;;;;;;82.28;32.05;;;;;;;-7.07;72.40;102051.63;10442257;28;20041;-77
2024/01/11 02:14:22;;;;;;;79.60;30.33;;;;;;;-7.18;72.06;102040.09;10444843;28;20045;-77
2024/01/11 02:19:25;;;;;;;83.57;29.10;;;;;;;-7.42;74.22;102028.31;10452451;28;21170;-76
2024/01/11 02:24:30;;;;;;;71.60;28.85;;;;;;;-7.46;76.03;102030.84;10437729;28;20125;-78
2024/01/11 02:29:33;;;;;;;85.18;32.85;;;;;;;-7.38;75.72;102044.91;10440061;28;20416;-78
2024/01/11 02:34:36;;;;;;;84.75;33.10;;;;;;;-7.33;75.31;102039.78;10451689;28;20045;-78
2024/01/11 02:39:42;;;;;;;85.97;31.92;;;;;;;-7.15;75.52;102047.09;10438729;28;20040;-77
2024/01/11 02:44:45;;;;;;;79.68;30.85;;;;;;;-7.16;74.29;102046.19;10447130;28;20448;-77
2024/01/11 02:49:48;;;;;;;82.68;32.10;;;;;;;-7.23;74.02;102063.50;10447658;28;20052;-78
2024/01/11 02:54:52;;;;;;;81.40;31.30;;;;;;;-7.23;73.36;102053.06;10446373;28;21280;-77
2024/01/11 02:59:55;;;;;;;85.18;31.25;;;;;;;-7.31;73.12;102043.31;10443141;28;20045;-77
2024/01/11 03:04:58;;;;;;;75.78;29.40;;;;;;;-7.29;73.03;102052.06;10438309;28;20175;-76
2024/01/11 03:10:03;;;;;;;77.75;29.40;;;;;;;-7.32;72.99;102049.38;10442991;28;20068;-76
2024/01/11 03:15:06;;;;;;;83.07;30.00;;;;;;;-7.33;73.02;102058.06;10452501;28;20051;-76
2024/01/11 03:20:10;;;;;;;68.78;29.40;;;;;;;-7.32;73.85;102049.38;10442452;28;20056;-78
2024/01/11 03:25:15;;;;;;;80.47;28.58;;;;;;;-7.32;73.76;102050.28;10443267;28;20620;-77
2024/01/11 03:30:18;;;;;;;73.05;28.42;;;;;;;-7.38;74.96;102036.22;10449090;28;20048;-78
2024/01/11 03:35:21;;;;;;;80.97;28.95;;;;;;;-7.52;75.68;102044.66;10450552;28;20109;-78
2024/01/11 03:40:26;;;;;;;76.60;28.52;;;;;;;-7.65;76.43;102038.31;10444553;28;20087;-76
2024/01/11 03:45:29;;;;;;;65.43;28.00;;;;;;;-7.67;77.05;102057.41;10451472;28;20472;-76
2024/01/11 03:50:32;;;;;;;75.80;28.85;;;;;;;-7.58;76.58;102062.81;10452516;28;20045;-76
2024/01/11 03:55:37;;;;;;;74.93;30.85;;;;;;;-7.59;76.14;102068.88;10438529;28;20068;-76
2024/01/11 04:00:40;;;;;;;76.43;30.27;;;;;;;-7.52;75.89;102070.75;10446006;28;20049;-76
2024/01/11 04:05:43;;;;;;;73.53;28.65;;;;;;;-7.47;75.17;102069.13;10448714;28;20169;-76
2024/01/11 04:10:48;;;;;;;70.28;29.85;;;;;;;-7.51;75.67;102069.91;10454956;28;20186;-78
2024/01/11 04:15:51;;;;;;;73.97;29.80;;;;;;;-7.47;75.48;102084.78;10446207;28;20400;-77
2024/01/11 04:20:54;;;;;;;80.03;30.75;;;;;;;-7.52;75.72;102081.19;10435462;28;20375;-76
2024/01/11 04:25:58;;;;;;;74.10;27.85;;;;;;;-7.50;76.23;102068.19;10433814;27;20044;-77
2024/01/11 04:31:01;;;;;;;62.65;26.58;;;;;;;-7.55;77.71;102069.81;10440577;28;20064;-76
2024/01/11 04:36:05;;;;;;;69.68;26.23;;;;;;;-7.57;77.90;102072.38;10450470;28;20052;-76
2024/01/11 04:41:13;;;;;;;65.53;28.23;;;;;;;-7.46;77.89;102101.31;10438849;28;20048;-76
2024/01/11 04:46:17;;;;;;;82.60;30.80;;;;;;;-7.31;77.56;102092.94;10437654;28;20238;-76
2024/01/11 04:51:21;;;;;;;67.38;28.00;;;;;;;-7.41;76.95;102081.41;10439459;28;20059;-76
2024/01/11 04:56:25;;;;;;;75.60;29.80;;;;;;;-7.43;76.52;102080.53;10457587;28;20507;-76
2024/01/11 05:01:28;;;;;;;65.82;27.40;;;;;;;-7.57;77.14;102056.72;10452337;28;20054;-76
2024/01/11 05:06:31;;;;;;;65.85;27.80;;;;;;;-7.71;77.50;102045.13;10442586;28;20419;-76
2024/01/11 05:11:36;;;;;;;81.28;33.45;;;;;;;-7.70;77.63;102053.00;10456959;28;20055;-76
2024/01/11 05:16:39;;;;;;;77.18;31.50;;;;;;;-7.59;77.49;102057.56;10447059;28;20052;-76
2024/01/11 05:21:42;;;;;;;81.10;33.10;;;;;;;-7.55;76.88;102056.78;10459606;28;20058;-76
2024/01/11 05:26:47;;;;;;;85.60;33.08;;;;;;;-7.55;76.27;102057.66;10455616;28;20051;-76
2024/01/11 05:31:50;;;;;;;76.85;31.05;;;;;;;-7.53;76.36;102062.91;10453990;28;20056;-76
2024/01/11 05:36:53;;;;;;;84.68;30.65;;;;;;;-7.59;75.47;102076.72;10448346;28;20495;-77
2024/01/11 05:41:57;;;;;;;84.95;31.85;;;;;;;-7.55;75.52;102083.75;10469080;28;20047;-75
2024/01/11 05:47:00;;;;;;;71.70;29.48;;;;;;;-7.56;74.60;102083.72;10459562;28;20179;-77
2024/01/11 05:52:04;;;;;;;72.35;30.02;;;;;;;-7.64;74.50;102117.50;10466495;28;20127;-78
2024/01/11 05:57:08;;;;;;;78.38;31.67;;;;;;;-7.71;74.59;102121.69;10459975;28;20542;-75
2024/01/11 06:02:11;;;;;;;85.30;32.28;;;;;;;-7.72;74.65;102152.97;10452199;28;20041;-76
2024/01/11 06:07:14;;;;;;;83.32;31.17;;;;;;;-7.71;74.88;102160.84;10448072;28;20068;-76
2024/01/11 06:12:19;;;;;;;80.57;30.95;;;;;;;-7.71;75.69;102145.16;10443804;28;20469;-78
2024/01/11 06:17:22;;;;;;;84.75;32.88;;;;;;;-7.65;75.89;102119.22;10454642;28;20044;-77
2024/01/11 06:22:25;;;;;;;80.80;31.13;;;;;;;-7.57;76.24;102124.59;10456992;28;20045;-77
2024/01/11 06:27:29;;;;;;;76.32;30.13;;;;;;;-7.52;76.66;102106.44;10460362;28;20873;-78
2024/01/11 06:32:32;;;;;;;73.00;26.77;;;;;;;-7.96;77.61;102120.25;10451395;28;20052;-76
2024/01/11 06:37:35;;;;;;;78.05;30.80;;;;;;;-7.79;78.04;102118.03;10453653;28;20079;-76
2024/01/11 06:42:39;;;;;;;70.25;26.90;;;;;;;-7.84;77.86;102109.25;10444684;28;20519;-76
2024/01/11 06:47:45;;;;;;;68.60;26.42;;;;;;;-7.84;77.77;102090.97;10446371;28;20049;-77
2024/01/11 06:52:48;;;;;;;70.28;27.40;;;;;;;-8.05;78.87;102090.50;10451503;28;20055;-78
2024/01/11 06:57:52;;;;;;;75.13;30.10;;;;;;;-8.16;79.76;102095.47;10435508;28;20458;-77
2024/01/11 07:02:55;;;;;;;75.80;31.52;;;;;;;-7.97;79.34;102101.97;10446902;28;20048;-76
2024/01/11 07:07:58;;;;;;;79.90;30.88;;;;;;;-7.85;78.53;102096.16;10455860;28;20051;-77
2024/01/11 07:13:03;;;;;;;84.47;29.95;;;;;;;-7.86;78.67;102095.28;10446200;28;20045;-76
2024/01/11 07:18:06;;;;;;;87.30;31.00;;;;;;;-7.84;78.87;102117.06;10437345;28;20548;-75
2024/01/11 07:23:09;;;;;;;80.90;31.70;;;;;;;-7.79;77.98;102128.47;10444962;28;21186;-77
2024/01/11 07:28:14;;;;;;;77.90;30.90;;;;;;;-7.76;77.57;102131.16;10445396;28;20093;-75
2024/01/11 07:33:17;;;;;;;72.18;30.42;;;;;;;-7.78;76.59;102118.94;10449426;28;20503;-75
2024/01/11 07:38:20;;;;;;;75.22;31.67;;;;;;;-7.76;76.76;102125.94;10457588;28;20396;-78
2024/01/11 07:43:26;;;;;;;74.03;29.00;;;;;;;-7.75;76.17;102130.31;10451099;28;20174;-77
2024/01/11 07:48:36;;;;;;;79.07;30.60;;;;;;;-7.73;76.47;102131.22;10444891;28;20039;-75
2024/01/11 07:53:40;;;;;;;80.40;29.50;;;;;;;-7.73;76.60;102130.34;10456382;28;20045;-77
2024/01/11 07:58:46;;;;;;;72.93;27.77;;;;;;;-7.69;77.31;102130.44;10465726;28;20511;-77
2024/01/11 08:03:52;;;;;;;69.38;27.13;;;;;;;-7.59;76.95;102141.97;10451319;28;20097;-78
2024/01/11 08:08:56;;;;;;;71.45;29.13;;;;;;;-7.51;77.09;102156.06;10440375;28;20044;-76
2024/01/11 08:14:00;;;;;;;114.43;41.28;;;;;;;-7.00;80.23;102147.53;10446406;28;20075;-76
2024/01/11 08:19:03;;;;;;;139.57;61.78;;;;;;;-5.74;77.95;102151.41;10459792;28;20045;-78
2024/01/11 08:24:07;;;;;;;61.55;32.80;;;;;;;-4.75;73.16;102163.13;10464844;28;20513;-78
2024/01/11 08:29:12;;;;;;;58.10;28.67;;;;;;;-4.16;67.46;102182.97;10447824;28;20507;-78
2024/01/11 08:34:15;;;;;;;54.95;28.42;;;;;;;-3.65;65.93;102178.97;10444628;28;20051;-77
2024/01/11 08:39:18;;;;;;;61.22;28.23;;;;;;;-3.06;63.50;102182.78;10440937;28;20187;-78
2024/01/11 08:44:23;;;;;;;57.67;27.00;;;;;;;-3.36;61.67;102190.53;10446437;28;20040;-78
2024/01/11 08:49:26;;;;;;;53.10;25.05;;;;;;;-3.16;62.31;102195.88;10449093;28;20427;-78
2024/01/11 08:54:29;;;;;;;61.05;25.33;;;;;;;-2.99;61.90;102208.25;10442913;28;20166;-78
2024/01/11 08:59:34;;;;;;;52.00;24.40;;;;;;;-3.04;61.10;102191.56;10454175;28;20047;-77
2024/01/11 09:04:37;;;;;;;52.17;23.60;;;;;;;-4.39;64.42;102172.28;10467969;28;23125;-77
2024/01/11 09:09:41;;;;;;;50.08;22.65;;;;;;;-4.24;65.87;102155.75;10457139;28;20066;-77
2024/01/11 09:14:57;;;;;;;48.17;22.17;;;;;;;-4.16;66.13;102158.47;10451640;28;20603;-77
2024/01/11 09:19:59;;;;;;;51.40;23.85;;;;;;;-4.09;67.25;102157.63;10430819;28;20048;-77
2024/01/11 09:25:03;;;;;;;52.45;24.05;;;;;;;-3.12;63.68;102151.22;10439404;28;20045;-77
2024/01/11 09:30:09;;;;;;;50.78;24.13;;;;;;;-2.91;62.10;102149.50;10441398;28;20123;-77
2024/01/11 09:35:12;;;;;;;48.17;23.10;;;;;;;-2.84;63.49;102153.94;10432884;28;20097;-77
2024/01/11 09:40:19;;;;;;;45.67;23.20;;;;;;;-2.54;60.90;102156.63;10449424;28;20184;-79
2024/01/11 09:45:23;;;;;;;54.50;24.95;;;;;;;-1.43;60.55;102185.53;10452430;28;20048;-78
2024/01/11 09:50:26;;;;;;;48.58;24.60;;;;;;;-0.57;57.27;102172.88;10442963;28;20044;-78
2024/01/11 09:55:29;;;;;;;57.15;25.65;;;;;;;-0.10;55.38;102182.22;10458016;28;20061;-78
2024/01/11 10:00:33;;;;;;;48.70;23.73;;;;;;;-0.04;54.35;102168.06;10452120;28;20056;-77
2024/01/11 10:05:37;;;;;;;55.63;26.30;;;;;;;-0.75;53.50;102172.97;10447591;28;20113;-78
2024/01/11 10:10:40;;;;;;;52.50;25.10;;;;;;;-0.42;54.34;102171.88;10448195;28;20944;-78
2024/01/11 10:15:45;;;;;;;57.97;25.80;;;;;;;-0.17;52.24;102171.69;10447813;28;20759;-78
2024/01/11 10:20:52;;;;;;;51.95;25.48;;;;;;;-1.46;55.84;102167.09;10449750;28;20044;-78
2024/01/11 10:25:56;;;;;;;53.15;24.15;;;;;;;-2.61;60.55;102164.50;10448284;28;20405;-78
2024/01/11 10:31:01;;;;;;;45.15;22.52;;;;;;;-3.04;63.82;102157.38;10444452;28;20047;-78
2024/01/11 10:36:05;;;;;;;47.17;21.48;;;;;;;-3.47;66.96;102174.69;10463879;28;20044;-78
2024/01/11 10:41:08;;;;;;;50.47;22.77;;;;;;;-3.13;66.92;102151.19;10445321;28;20884;-78
2024/01/11 10:46:14;;;;;;;48.42;23.65;;;;;;;-3.35;69.83;102153.72;10456543;28;20075;-78
2024/01/11 10:51:23;;;;;;;51.13;24.30;;;;;;;-3.00;69.32;102147.75;10454362;28;20048;-78
2024/01/11 10:56:28;;;;;;;48.90;22.90;;;;;;;-2.73;68.62;102153.06;10451029;28;20052;-78
2024/01/11 11:01:33;;;;;;;44.30;21.23;;;;;;;-2.75;71.41;102139.03;10449556;28;20048;-79
2024/01/11 11:06:37;;;;;;;48.33;21.42;;;;;;;-3.00;75.00;102135.47;10448968;28;20056;-77
2024/01/11 11:11:41;;;;;;;50.80;22.08;;;;;;;-2.97;78.21;102139.84;10444355;28;20060;-77
2024/01/11 11:16:47;;;;;;;51.70;20.77;;;;;;;-3.36;81.50;102135.34;10446255;28;20053;-76
2024/01/11 11:21:50;;;;;;;53.88;22.92;;;;;;;-3.11;82.67;102141.56;10453176;28;20052;-78
2024/01/11 11:26:57;;;;;;;48.03;21.17;;;;;;;-2.61;82.43;102146.06;10460679;28;21281;-78
2024/01/11 11:32:04;;;;;;;56.15;24.27;;;;;;;-2.26;82.08;102148.75;10449954;28;20052;-78
2024/01/11 11:37:08;;;;;;;57.38;24.00;;;;;;;-2.16;80.99;102145.25;10450832;28;20047;-79
2024/01/11 11:42:13;;;;;;;56.53;23.58;;;;;;;-2.37;83.01;102139.97;10446105;28;20718;-78
2024/01/11 11:47:22;;;;;;;54.92;24.35;;;;;;;-2.52;83.19;102140.84;10450675;28;20048;-78
2024/01/11 11:52:26;;;;;;;56.58;24.33;;;;;;;-2.26;83.55;102127.69;10448469;28;20760;-77
2024/01/11 11:57:29;;;;;;;57.38;24.38;;;;;;;-2.41;83.38;102131.19;10442955;28;20060;-77
2024/01/11 12:02:35;;;;;;;60.00;23.85;;;;;;;-2.62;86.24;102123.28;10443508;28;20531;-77
2024/01/11 12:07:39;;;;;;;59.30;23.25;;;;;;;-2.76;87.43;102132.03;10457359;28;20150;-77
2024/01/11 12:12:42;;;;;;;63.50;26.20;;;;;;;-2.83;88.67;102122.34;10444377;28;20049;-78
2024/01/11 12:17:47;;;;;;;61.70;26.52;;;;;;;-2.75;89.90;102120.63;10443246;28;20116;-78
2024/01/11 12:22:50;;;;;;;61.03;25.20;;;;;;;-2.80;89.45;102119.75;10453597;28;20093;-77
2024/01/11 12:27:53;;;;;;;62.10;27.00;;;;;;;-2.61;88.86;102106.59;10479056;28;21132;-77
2024/01/11 12:32:57;;;;;;;58.63;25.92;;;;;;;-2.84;90.10;102096.94;10471557;28;20561;-76
2024/01/11 12:38:05;;;;;;;67.45;26.85;;;;;;;-2.74;90.27;102101.34;10445750;28;20044;-77
2024/01/11 12:43:12;;;;;;;66.65;24.85;;;;;;;-2.68;91.09;102092.56;10441018;28;20036;-77
2024/01/11 12:48:18;;;;;;;67.70;26.10;;;;;;;-2.67;92.54;102081.16;10446418;28;20060;-77
2024/01/11 12:53:21;;;;;;;67.43;26.17;;;;;;;-2.71;92.56;102066.28;10440541;28;20048;-76
2024/01/11 12:58:25;;;;;;;68.60;28.88;;;;;;;-2.58;93.14;102068.03;10464767;28;20048;-77
2024/01/11 13:03:31;;;;;;;68.53;27.02;;;;;;;-2.36;91.92;102063.66;10439360;28;20125;-78
2024/01/11 13:08:36;;;;;;;65.78;25.60;;;;;;;-2.23;92.08;102066.25;10445083;28;20059;-78
2024/01/11 13:13:39;;;;;;;65.47;27.13;;;;;;;-2.27;91.59;102069.78;10433277;28;20048;-79
2024/01/11 13:18:44;;;;;;;61.28;25.52;;;;;;;-2.74;95.24;102061.88;10435358;28;20048;-78
2024/01/11 13:23:47;;;;;;;66.43;27.10;;;;;;;-2.31;93.85;102059.22;10436437;28;20063;-78
2024/01/11 13:28:52;;;;;;;66.85;27.38;;;;;;;-1.95;93.46;102065.31;10445995;28;20073;-78
2024/01/11 13:33:57;;;;;;;60.30;26.42;;;;;;;-1.81;91.70;102062.66;10451449;28;20049;-78
2024/01/11 13:39:00;;;;;;;66.85;27.63;;;;;;;-1.93;92.32;102050.38;10455686;28;20415;-78
2024/01/11 13:44:05;;;;;;;61.22;26.30;;;;;;;-1.84;91.99;102062.66;10453793;28;20048;-78
2024/01/11 13:49:10;;;;;;;67.88;26.35;;;;;;;-1.89;92.36;102065.31;10458031;28;20166;-76
2024/01/11 13:54:14;;;;;;;64.00;26.77;;;;;;;-1.90;92.15;102055.63;10455426;28;20448;-77
2024/01/11 13:59:17;;;;;;;62.55;25.20;;;;;;;-2.00;92.89;102048.66;10467152;28;20388;-77
2024/01/11 14:04:23;;;;;;;63.38;24.38;;;;;;;-2.16;95.19;102060.97;10471387;28;20044;-77
2024/01/11 14:09:27;;;;;;;58.55;23.85;;;;;;;-2.07;95.17;102049.53;10456226;28;20588;-77
2024/01/11 14:14:30;;;;;;;59.95;23.10;;;;;;;-2.04;95.92;102053.94;10462465;28;20044;-77
2024/01/11 14:19:35;;;;;;;62.05;23.80;;;;;;;-2.17;97.37;102056.56;10457334;28;20094;-77
2024/01/11 14:24:38;;;;;;;56.35;23.20;;;;;;;-1.92;97.30;102067.06;10466857;28;20052;-77
2024/01/11 14:29:41;;;;;;;64.38;23.13;;;;;;;-1.70;96.68;102071.41;10469219;28;20048;-78
2024/01/11 14:34:45;;;;;;;63.67;22.05;;;;;;;-1.66;96.11;102064.38;10472392;28;20051;-78
2024/01/11 14:39:49;;;;;;;62.88;23.58;;;;;;;-1.76;96.92;102084.59;10471115;28;20043;-78
2024/01/11 14:44:52;;;;;;;61.63;24.17;;;;;;;-1.71;96.87;102068.78;10451766;28;20048;-78
2024/01/11 14:49:56;;;;;;;56.38;22.38;;;;;;;-1.61;96.58;102078.41;10455828;28;20053;-78
2024/01/11 14:54:59;;;;;;;48.10;21.73;;;;;;;-1.51;96.43;102073.97;10457786;28;20044;-78
2024/01/11 15:00:03;;;;;;;59.50;20.33;;;;;;;-1.55;96.94;102069.59;10465086;28;20051;-78
2024/01/11 15:05:12;;;;;;;50.05;19.88;;;;;;;-1.62;98.27;102080.19;10464534;28;21154;-78
2024/01/11 15:10:15;;;;;;;49.22;20.17;;;;;;;-1.53;97.54;102057.31;10453995;28;20044;-78
2024/01/11 15:15:18;;;;;;;51.55;19.80;;;;;;;-1.49;97.65;102048.47;10482708;28;20037;-78
2024/01/11 15:20:22;;;;;;;49.60;20.20;;;;;;;-1.48;98.02;102052.84;10448059;28;20044;-78
2024/01/11 15:25:26;;;;;;;53.78;20.02;;;;;;;-1.43;98.52;102054.59;10464338;28;21232;-78
2024/01/11 15:30:29;;;;;;;56.72;21.83;;;;;;;-1.40;99.00;102057.25;10450714;28;20045;-77
2024/01/11 15:35:34;;;;;;;48.45;19.90;;;;;;;-1.35;99.43;102062.47;10456885;28;20074;-77
2024/01/11 15:40:37;;;;;;;50.00;20.27;;;;;;;-1.38;99.73;102058.97;10435341;28;20075;-78
2024/01/11 15:45:40;;;;;;;47.33;19.00;;;;;;;-1.33;100.00;102071.25;10456714;28;20052;-78
2024/01/11 15:50:44;;;;;;;49.08;20.88;;;;;;;-1.29;99.87;102070.38;10455527;28;21827;-78
2024/01/11 15:55:48;;;;;;;51.80;20.17;;;;;;;-1.24;99.86;102076.47;10452557;28;20044;-77
2024/01/11 16:00:51;;;;;;;59.95;23.83;;;;;;;-1.18;100.00;102067.66;10450373;28;20056;-77
2024/01/11 16:05:55;;;;;;;72.72;27.27;;;;;;;-1.13;99.79;102076.41;10455546;28;20059;-78
2024/01/11 16:10:59;;;;;;;64.97;27.50;;;;;;;-1.13;99.93;102067.63;10447856;28;20048;-77
2024/01/11 16:16:02;;;;;;;75.80;34.60;;;;;;;-1.09;100.00;102064.13;10448534;28;20539;-77
2024/01/11 16:21:06;;;;;;;54.53;22.92;;;;;;;-1.05;100.00;102061.44;10449063;28;20045;-77
2024/01/11 16:26:10;;;;;;;63.60;22.60;;;;;;;-0.98;100.00;102068.44;10436505;28;20080;-77
2024/01/11 16:31:17;;;;;;;56.75;25.98;;;;;;;-0.97;100.00;102069.28;10453037;28;20212;-78
2024/01/11 16:36:21;;;;;;;45.53;20.98;;;;;;;-0.95;100.00;102062.25;10446936;28;20516;-78
2024/01/11 16:41:24;;;;;;;46.22;19.13;;;;;;;-0.88;100.00;102065.72;10446627;28;20545;-78
2024/01/11 16:46:28;;;;;;;38.35;17.55;;;;;;;-0.81;100.00;102055.13;10455713;28;20052;-77
2024/01/11 16:51:32;;;;;;;43.67;17.50;;;;;;;-0.97;100.00;102056.97;10477088;28;20057;-77
2024/01/11 16:56:35;;;;;;;41.65;18.88;;;;;;;-0.83;100.00;102064.81;10426840;28;20051;-78
2024/01/11 17:01:39;;;;;;;47.33;19.90;;;;;;;-0.75;100.00;102062.97;10441611;28;20086;-77
2024/01/11 17:06:44;;;;;;;53.20;20.90;;;;;;;-0.72;100.00;102075.28;10435191;28;20424;-75
2024/01/11 17:11:47;;;;;;;40.83;19.42;;;;;;;-0.66;100.00;102087.56;10464358;28;20060;-78
2024/01/11 17:16:51;;;;;;;45.53;19.98;;;;;;;-0.75;100.00;102078.81;10456243;28;20097;-76
2024/01/11 17:21:56;;;;;;;46.80;20.08;;;;;;;-0.65;100.00;102073.50;10446075;28;20427;-76
2024/01/11 17:27:03;;;;;;;45.28;19.58;;;;;;;-0.66;100.00;102077.00;10449646;28;20053;-78
2024/01/11 17:32:07;;;;;;;42.67;20.90;;;;;;;-0.62;100.00;102084.03;10452790;28;20094;-76
2024/01/11 17:37:12;;;;;;;50.42;21.75;;;;;;;-0.59;100.00;102073.44;10458244;28;20048;-78
2024/01/11 17:42:15;;;;;;;48.42;21.50;;;;;;;-0.75;100.00;102057.69;10460893;28;20419;-78
2024/01/11 17:47:18;;;;;;;46.95;20.90;;;;;;;-0.75;100.00;102062.97;10441053;28;20044;-78
2024/01/11 17:52:22;;;;;;;52.00;21.85;;;;;;;-0.73;100.00;102048.03;10465013;28;20044;-77
2024/01/11 17:57:25;;;;;;;53.38;22.33;;;;;;;-0.57;100.00;102050.56;10454594;28;20507;-77
2024/01/11 18:02:30;;;;;;;62.28;23.15;;;;;;;-0.60;100.00;102048.81;10431165;28;20424;-77
2024/01/11 18:07:35;;;;;;;59.55;25.60;;;;;;;-0.87;100.00;102049.88;10474646;28;20052;-77
2024/01/11 18:12:38;;;;;;;63.72;25.77;;;;;;;-0.95;100.00;102038.50;10445983;28;20048;-77
2024/01/11 18:17:41;;;;;;;59.38;25.33;;;;;;;-0.86;100.00;102037.56;10451416;28;20138;-78
2024/01/11 18:22:47;;;;;;;61.90;25.90;;;;;;;-0.86;100.00;102042.84;10444276;28;20800;-77
2024/01/11 18:27:50;;;;;;;58.35;25.65;;;;;;;-0.99;100.00;102042.03;10452799;28;20052;-77
2024/01/11 18:32:53;;;;;;;61.15;25.63;;;;;;;-0.82;100.00;102044.59;10459814;28;20060;-77
2024/01/11 18:37:57;;;;;;;56.90;25.90;;;;;;;-0.62;100.00;102050.59;10450046;28;20053;-77
2024/01/11 18:43:01;;;;;;;57.95;25.60;;;;;;;-0.64;100.00;102043.56;10463260;28;20045;-77
2024/01/11 18:48:08;;;;;;;59.03;25.98;;;;;;;-0.77;100.00;102055.97;10454531;28;20052;-78
2024/01/11 18:53:12;;;;;;;56.88;25.35;;;;;;;-0.66;100.00;102042.69;10458476;28;21650;-78
2024/01/11 18:58:17;;;;;;;57.92;24.10;;;;;;;-0.56;100.00;102047.00;10492528;28;20043;-77
2024/01/11 19:03:21;;;;;;;59.85;27.15;;;;;;;-0.55;100.00;102060.22;10487117;28;20601;-77
2024/01/11 19:08:27;;;;;;;56.45;22.55;;;;;;;-0.66;100.00;102047.97;10487130;28;20060;-77
2024/01/11 19:13:31;;;;;;;58.83;24.55;;;;;;;-0.48;100.00;102070.72;10506914;28;20044;-77
2024/01/11 19:18:34;;;;;;;55.25;25.23;;;;;;;-0.54;100.00;102063.72;10495634;28;20056;-77
2024/01/11 19:23:38;;;;;;;57.33;24.13;;;;;;;-0.49;100.00;102064.56;10495674;28;20135;-77
2024/01/11 19:28:42;;;;;;;56.65;23.70;;;;;;;-0.40;100.00;102058.31;10459234;28;20101;-77
2024/01/11 19:33:45;;;;;;;51.78;23.85;;;;;;;-0.38;100.00;102065.34;10452045;28;21185;-78
2024/01/11 19:38:50;;;;;;;49.85;22.70;;;;;;;-0.46;100.00;102087.44;10441149;28;20045;-76
2024/01/11 19:43:54;;;;;;;49.92;22.10;;;;;;;-0.41;100.00;102083.88;10441926;28;20429;-78
2024/01/11 19:48:57;;;;;;;55.63;24.13;;;;;;;-0.51;100.00;102090.09;10456131;28;20049;-77
2024/01/11 19:54:02;;;;;;;57.40;25.70;;;;;;;-0.35;100.00;102094.38;10444317;28;20118;-77
2024/01/11 19:59:05;;;;;;;55.72;24.92;;;;;;;-0.31;100.00;102101.34;10468328;28;20039;-77
2024/01/11 20:04:08;;;;;;;56.78;24.90;;;;;;;-0.28;100.00;102109.25;10453947;28;20052;-78
2024/01/11 20:09:15;;;;;;;53.00;23.58;;;;;;;-0.28;100.00;102109.25;10441943;28;21164;-78
2024/01/11 20:14:18;;;;;;;61.55;27.75;;;;;;;-0.24;100.00;102110.13;10448813;28;20048;-78
2024/01/11 20:19:21;;;;;;;55.88;25.60;;;;;;;-0.25;100.00;102107.47;10449131;28;20519;-76
2024/01/11 20:24:25;;;;;;;53.85;24.85;;;;;;;-0.24;100.00;102115.41;10469461;28;20044;-76
2024/01/11 20:29:28;;;;;;;60.20;27.20;;;;;;;-0.24;100.00;102114.53;10465598;28;20052;-76
2024/01/11 20:34:32;;;;;;;55.30;23.45;;;;;;;-0.24;100.00;102122.47;10485406;28;20063;-76
2024/01/11 20:39:40;;;;;;;50.97;23.77;;;;;;;-0.25;100.00;102116.28;10485393;28;20088;-76
2024/01/11 20:44:43;;;;;;;54.47;24.90;;;;;;;-0.24;100.00;102123.34;10486677;28;20063;-78
2024/01/11 20:49:46;;;;;;;58.60;24.88;;;;;;;-0.24;100.00;102120.69;10474702;28;20048;-77
2024/01/11 20:54:51;;;;;;;55.38;24.45;;;;;;;-0.24;100.00;102117.19;10478604;28;20044;-78
2024/01/11 20:59:56;;;;;;;61.67;27.35;;;;;;;-0.28;100.00;102117.19;10440315;28;20097;-77
2024/01/11 21:04:58;;;;;;;53.38;24.75;;;;;;;-0.27;100.00;102115.44;10452957;28;20044;-77
2024/01/11 21:10:03;;;;;;;60.03;25.65;;;;;;;-0.30;100.00;102118.09;10454911;28;20048;-78
2024/01/11 21:15:07;;;;;;;60.15;24.67;;;;;;;-0.30;100.00;102128.69;10452798;28;20688;-78
2024/01/11 21:20:11;;;;;;;57.17;25.90;;;;;;;-0.28;100.00;102138.31;10441527;28;20045;-76
2024/01/11 21:25:15;;;;;;;61.88;27.38;;;;;;;-0.24;100.00;102139.19;10438797;28;20056;-76
2024/01/11 21:30:19;;;;;;;57.63;25.92;;;;;;;-0.24;100.00;102133.03;10436165;28;20182;-76
2024/01/11 21:35:22;;;;;;;60.58;27.73;;;;;;;-0.35;100.00;102133.97;10432772;28;20557;-77
2024/01/11 21:40:26;;;;;;;63.10;25.90;;;;;;;-0.30;100.00;102133.97;10462621;28;20044;-77
2024/01/11 21:45:30;;;;;;;56.25;26.30;;;;;;;-0.30;100.00;102139.25;10480777;28;20045;-78
2024/01/11 21:50:33;;;;;;;55.22;25.38;;;;;;;-0.49;100.00;102133.22;10462178;28;20048;-78
2024/01/11 21:55:38;;;;;;;58.72;26.17;;;;;;;-0.40;100.00;102125.22;10478111;28;20143;-77
2024/01/11 22:00:41;;;;;;;55.88;24.83;;;;;;;-0.35;100.00;102133.97;10447884;28;20048;-78
2024/01/11 22:05:44;;;;;;;60.58;26.13;;;;;;;-0.26;100.00;102134.81;10449417;28;20133;-78
2024/01/11 22:10:51;;;;;;;59.20;24.73;;;;;;;-0.22;100.00;102133.88;10450151;28;20041;-78
2024/01/11 22:15:54;;;;;;;63.45;25.83;;;;;;;-0.28;100.00;102138.31;10443021;28;20045;-77
2024/01/11 22:20:57;;;;;;;62.63;26.27;;;;;;;-0.20;100.00;102134.75;10451870;28;20055;-77
2024/01/11 22:26:01;;;;;;;61.20;25.27;;;;;;;-0.15;100.00;102138.22;10439657;28;20049;-78
2024/01/11 22:31:04;;;;;;;60.13;25.48;;;;;;;-0.24;100.00;102141.81;10444607;28;20535;-77
2024/01/11 22:36:09;;;;;;;67.00;27.10;;;;;;;-0.23;100.00;102142.69;10440633;28;20037;-78
2024/01/11 22:41:14;;;;;;;65.85;25.10;;;;;;;-0.31;100.00;102140.09;10451689;28;20059;-78